Time;durP1;ratioP1;P1;durP2;ratioP2;P2;SDS_P1;SDS_P2;PMS_P1;PMS_P2;Temp;Humidity;BMP_temperature;BMP_pressure;BME280_temperature;BME280_humidity;BME280_pressure;Samples;Min_cycle;Max_cycle;Signal;HPM_P1;HPM_P2
2021/04/30 06:36:33;;;;;;;25.58;20.83;;;;;;;;;;10632747;28;20036;-84
2021/04/30 06:41:36;;;;;;;25.80;22.98;;;;;;;;;;10589764;28;20128;-83
2021/04/30 06:47:03;;;;;;;31.23;25.83;;;;;;;;;;10631389;28;20027;-84
2021/04/30 06:57:48;;;;;;;11.60;9.93;;;;;;;;;;10632347;28;20028;-81
2021/04/30 07:02:49;;;;;;;20.75;17.67;;;;;;;;;;10610327;28;20039;-82
2021/04/30 07:07:56;;;;;;;26.88;22.67;;;;;;;;;;10581665;28;20055;-82
2021/04/30 07:13:01;;;;;;;31.15;24.02;;;;;;;;;;10563774;28;20036;-82
2021/04/30 07:18:28;;;;;;;32.67;24.77;;;;;;;;;;10578907;28;20051;-82
2021/04/30 07:23:33;;;;;;;33.25;25.58;;;;;;;;;;10579313;28;20469;-81
2021/04/30 07:28:39;;;;;;;38.53;27.45;;;;;;;;;;10551301;28;20528;-81
2021/04/30 07:34:17;;;;;;;33.63;26.52;;;;;;;;;;10603461;28;20023;-82
2021/04/30 07:39:19;;;;;;;34.67;28.02;;;;;;;;;;10601730;28;20072;-82
2021/04/30 07:44:52;;;;;;;40.45;29.50;;;;;;;;;;10594203;28;20435;-82
2021/04/30 07:49:54;;;;;;;39.53;28.88;;;;;;;;;;10581073;28;20095;-83
2021/04/30 07:55:02;;;;;;;39.50;29.95;;;;;;;;;;10597738;28;20043;-83
2021/04/30 08:00:07;;;;;;;37.15;28.88;;;;;;;;;;10577849;28;20032;-82
2021/04/30 08:05:10;;;;;;;35.55;27.42;;;;;;;;;;10599425;28;20032;-82
2021/04/30 08:10:13;;;;;;;33.60;25.80;;;;;;;;;;10597846;28;20028;-82
2021/04/30 08:15:16;;;;;;;34.55;26.58;;;;;;;;;;10583920;28;20036;-82
2021/04/30 08:20:27;;;;;;;35.80;24.80;;;;;;;;;;10590619;28;20026;-83
2021/04/30 08:25:29;;;;;;;34.42;24.83;;;;;;;;;;10605873;28;20045;-82
2021/04/30 08:30:30;;;;;;;32.50;24.13;;;;;;;;;;10582311;28;20031;-80
2021/04/30 08:35:31;;;;;;;31.70;24.30;;;;;;;;;;10579127;28;20527;-82
2021/04/30 08:40:32;;;;;;;27.90;22.70;;;;;;;;;;10580291;28;20452;-80
2021/04/30 08:45:33;;;;;;;29.75;21.65;;;;;;;;;;10582387;28;20027;-80
2021/04/30 08:50:34;;;;;;;29.98;23.92;;;;;;;;;;10583901;28;20362;-80
2021/04/30 08:55:35;;;;;;;29.92;20.27;;;;;;;;;;10604503;28;20035;-80
2021/04/30 09:00:36;;;;;;;30.48;22.38;;;;;;;;;;10586251;28;20039;-80
2021/04/30 09:05:45;;;;;;;28.75;22.65;;;;;;;;;;10605874;28;20103;-80
2021/04/30 09:10:49;;;;;;;28.50;20.23;;;;;;;;;;10582835;28;20039;-79
2021/04/30 09:16:03;;;;;;;26.05;20.25;;;;;;;;;;10585535;28;20023;-80
2021/04/30 09:21:09;;;;;;;27.40;20.08;;;;;;;;;;10584866;28;20023;-79
2021/04/30 09:26:26;;;;;;;27.88;21.05;;;;;;;;;;10593679;28;20095;-78
2021/04/30 09:31:33;;;;;;;27.83;20.25;;;;;;;;;;10595317;28;20028;-79
2021/04/30 09:36:53;;;;;;;29.02;21.30;;;;;;;;;;10606238;28;20024;-79
2021/04/30 09:42:07;;;;;;;28.05;21.25;;;;;;;;;;10584944;28;20096;-80
2021/04/30 09:47:27;;;;;;;30.02;21.55;;;;;;;;;;10589784;28;20082;-81
2021/04/30 09:52:32;;;;;;;26.95;19.85;;;;;;;;;;10611575;28;20482;-81
2021/04/30 09:57:33;;;;;;;26.85;20.08;;;;;;;;;;10596037;28;20016;-81
2021/04/30 10:02:35;;;;;;;25.85;19.73;;;;;;;;;;10594837;28;20038;-80
2021/04/30 10:07:38;;;;;;;25.75;19.67;;;;;;;;;;10599621;28;20027;-80
2021/04/30 10:12:40;;;;;;;25.90;20.88;;;;;;;;;;10596858;28;20019;-81
2021/04/30 10:17:41;;;;;;;23.92;20.33;;;;;;;;;;10591935;28;20035;-80
2021/04/30 10:22:43;;;;;;;25.20;19.25;;;;;;;;;;10598459;28;20015;-81
2021/04/30 10:28:04;;;;;;;23.05;18.92;;;;;;;;;;10607163;28;20043;-82
2021/04/30 10:33:15;;;;;;;24.05;20.40;;;;;;;;;;10625739;28;20039;-82
2021/04/30 10:38:17;;;;;;;23.35;19.35;;;;;;;;;;10596337;28;20091;-81
2021/04/30 10:43:30;;;;;;;25.73;19.50;;;;;;;;;;10623267;28;20032;-81
2021/04/30 10:48:31;;;;;;;21.83;18.00;;;;;;;;;;10599495;28;20022;-82
2021/04/30 10:53:32;;;;;;;21.65;18.17;;;;;;;;;;10607022;22;20039;-82
2021/04/30 10:58:35;;;;;;;20.73;17.92;;;;;;;;;;10580034;28;20027;-81
2021/04/30 11:03:36;;;;;;;21.23;17.75;;;;;;;;;;10578734;28;20118;-82
2021/04/30 11:08:50;;;;;;;20.75;16.92;;;;;;;;;;10596365;28;20052;-81
2021/04/30 11:14:10;;;;;;;22.02;17.80;;;;;;;;;;10576783;28;20027;-82
2021/04/30 11:19:10;;;;;;;18.70;16.42;;;;;;;;;;10577745;28;20084;-83
2021/04/30 11:24:30;;;;;;;19.80;16.85;;;;;;;;;;10576557;28;20501;-83
2021/04/30 11:29:31;;;;;;;19.48;16.35;;;;;;;;;;10595462;28;20027;-83
2021/04/30 11:34:32;;;;;;;22.15;17.80;;;;;;;;;;10602895;28;20028;-82
2021/04/30 11:39:35;;;;;;;19.23;16.85;;;;;;;;;;10578213;28;20422;-82
2021/04/30 11:44:42;;;;;;;19.88;17.00;;;;;;;;;;10572767;28;20023;-81
2021/04/30 11:49:43;;;;;;;23.67;18.10;;;;;;;;;;10572624;28;20032;-80
2021/04/30 11:54:44;;;;;;;22.42;17.95;;;;;;;;;;10575863;28;20038;-82
2021/04/30 11:59:45;;;;;;;24.25;19.05;;;;;;;;;;10578246;28;20472;-82
2021/04/30 12:04:51;;;;;;;24.02;19.63;;;;;;;;;;10582871;28;20063;-81
2021/04/30 12:09:53;;;;;;;31.27;26.55;;;;;;;;;;10574760;28;20077;-84
2021/04/30 12:14:56;;;;;;;22.15;18.35;;;;;;;;;;10574270;28;20035;-81
2021/04/30 12:19:59;;;;;;;30.88;27.15;;;;;;;;;;10594216;28;20088;-82
2021/04/30 12:25:18;;;;;;;21.80;17.92;;;;;;;;;;10578397;28;20076;-81
2021/04/30 12:30:19;;;;;;;;;;;;;;;;;;10584886;28;20057;-79
2021/04/30 12:35:20;;;;;;;18.58;15.68;;;;;;;;;;10597692;28;19908;-81
2021/04/30 12:40:27;;;;;;;21.55;19.25;;;;;;;;;;10575380;28;20020;-82
2021/04/30 12:45:28;;;;;;;17.35;15.30;;;;;;;;;;10593387;28;20049;-81
2021/04/30 12:50:29;;;;;;;17.23;13.38;;;;;;;;;;10573365;28;20031;-82
2021/04/30 12:55:32;;;;;;;17.42;14.05;;;;;;;;;;10572568;28;20038;-81
2021/04/30 13:00:52;;;;;;;15.85;13.48;;;;;;;;;;10573062;28;20068;-80
2021/04/30 13:05:55;;;;;;;15.07;12.98;;;;;;;;;;10595514;28;20035;-80
2021/04/30 13:11:00;;;;;;;15.45;13.43;;;;;;;;;;10573322;28;20091;-82
2021/04/30 13:16:03;;;;;;;13.85;11.88;;;;;;;;;;10571129;28;20031;-80
2021/04/30 13:21:05;;;;;;;13.60;12.07;;;;;;;;;;10576618;28;20027;-82
2021/04/30 13:26:22;;;;;;;14.55;11.55;;;;;;;;;;10573472;28;20027;-83
2021/04/30 13:31:23;;;;;;;17.20;12.93;;;;;;;;;;10573797;28;20023;-80
2021/04/30 13:36:25;;;;;;;13.30;11.23;;;;;;;;;;10570828;28;20038;-81
2021/04/30 13:41:35;;;;;;;14.93;11.00;;;;;;;;;;10596608;28;20038;-81
2021/04/30 13:46:36;;;;;;;12.38;10.18;;;;;;;;;;10572396;28;20106;-81
2021/04/30 13:51:37;;;;;;;13.98;10.68;;;;;;;;;;10570459;28;20071;-80
2021/04/30 13:56:39;;;;;;;12.95;9.68;;;;;;;;;;10568870;28;20080;-83
2021/04/30 14:01:40;;;;;;;12.75;9.40;;;;;;;;;;10586679;28;20023;-83
2021/04/30 14:06:41;;;;;;;16.40;13.38;;;;;;;;;;10589440;28;20065;-83
2021/04/30 14:11:42;;;;;;;12.10;9.95;;;;;;;;;;10575106;28;20357;-83
2021/04/30 14:16:44;;;;;;;14.88;13.32;;;;;;;;;;10596832;28;20031;-83
2021/04/30 14:21:45;;;;;;;13.20;10.52;;;;;;;;;;10583778;28;20031;-82
2021/04/30 14:26:46;;;;;;;10.27;8.52;;;;;;;;;;10581855;28;20027;-83
2021/04/30 14:31:47;;;;;;;9.10;8.07;;;;;;;;;;10600190;28;20027;-84
2021/04/30 14:36:48;;;;;;;11.93;10.65;;;;;;;;;;10603600;28;20055;-83
2021/04/30 14:41:49;;;;;;;8.88;7.97;;;;;;;;;;10579301;28;20027;-81
2021/04/30 14:46:50;;;;;;;9.07;7.85;;;;;;;;;;10597547;28;20027;-83
2021/04/30 14:51:51;;;;;;;9.52;8.52;;;;;;;;;;10596316;28;20042;-83
2021/04/30 14:56:52;;;;;;;9.20;8.30;;;;;;;;;;10596513;28;20019;-82
2021/04/30 15:01:52;;;;;;;9.27;7.60;;;;;;;;;;10594812;28;20039;-84
2021/04/30 15:06:56;;;;;;;7.80;7.00;;;;;;;;;;10598580;28;20064;-82
2021/04/30 15:11:57;;;;;;;8.85;7.53;;;;;;;;;;10599797;28;20500;-82
2021/04/30 15:17:00;;;;;;;8.55;7.00;;;;;;;;;;10603066;28;20020;-82
2021/04/30 15:22:01;;;;;;;8.35;7.10;;;;;;;;;;10623440;28;20027;-82
2021/04/30 15:27:02;;;;;;;8.23;7.43;;;;;;;;;;10633271;27;20024;-80
2021/04/30 15:32:03;;;;;;;7.25;6.55;;;;;;;;;;10634843;27;20059;-82
2021/04/30 15:37:04;;;;;;;7.22;6.63;;;;;;;;;;10625224;27;20446;-83
2021/04/30 15:42:05;;;;;;;13.00;11.80;;;;;;;;;;10603142;28;20115;-82
2021/04/30 15:47:06;;;;;;;8.15;7.30;;;;;;;;;;10606255;28;20019;-82
2021/04/30 15:52:07;;;;;;;9.02;7.40;;;;;;;;;;10636192;27;20047;-80
2021/04/30 15:57:08;;;;;;;8.40;7.70;;;;;;;;;;10627959;27;20028;-83
2021/04/30 16:02:09;;;;;;;10.98;7.10;;;;;;;;;;10601346;28;20027;-82
2021/04/30 16:07:10;;;;;;;8.10;7.30;;;;;;;;;;10599373;28;20081;-83
2021/04/30 16:12:11;;;;;;;8.10;7.30;;;;;;;;;;10607496;28;20408;-81
2021/04/30 16:17:12;;;;;;;9.27;7.93;;;;;;;;;;10609776;28;20076;-81
2021/04/30 16:22:14;;;;;;;8.57;7.78;;;;;;;;;;10593960;28;20095;-81
2021/04/30 16:27:15;;;;;;;9.63;7.65;;;;;;;;;;10588723;28;20472;-82
2021/04/30 16:32:16;;;;;;;8.98;7.97;;;;;;;;;;10586706;28;20028;-85
2021/04/30 16:37:36;;;;;;;16.15;14.65;;;;;;;;;;10586822;28;20077;-84
2021/04/30 16:42:46;;;;;;;13.95;12.63;;;;;;;;;;10559670;28;20034;-85
2021/04/30 16:48:04;;;;;;;15.73;14.23;;;;;;;;;;10585562;28;20031;-85
2021/04/30 16:53:09;;;;;;;15.70;14.30;;;;;;;;;;10568437;28;20054;-85
2021/04/30 16:58:13;;;;;;;10.23;9.32;;;;;;;;;;10564806;28;20081;-85
2021/04/30 17:03:18;;;;;;;17.10;15.50;;;;;;;;;;10584914;28;20055;-85
2021/04/30 17:08:24;;;;;;;11.13;10.02;;;;;;;;;;10567766;28;20024;-85
2021/04/30 17:13:27;;;;;;;14.57;13.23;;;;;;;;;;10568116;28;20085;-85
2021/04/30 17:18:28;;;;;;;14.05;12.60;;;;;;;;;;10570728;28;20061;-86
2021/04/30 17:23:38;;;;;;;12.20;11.10;;;;;;;;;;10569086;28;20124;-86
2021/04/30 17:28:48;;;;;;;16.77;15.10;;;;;;;;;;10569553;28;20232;-86
2021/04/30 17:33:54;;;;;;;13.02;11.82;;;;;;;;;;10568035;28;20442;-85
2021/04/30 17:38:58;;;;;;;11.98;10.88;;;;;;;;;;10569093;28;20031;-85
2021/04/30 17:44:01;;;;;;;14.80;13.40;;;;;;;;;;10570812;28;20027;-86
2021/04/30 17:49:11;;;;;;;15.07;13.65;;;;;;;;;;10571816;28;20024;-86
2021/04/30 17:54:32;;;;;;;15.13;13.82;;;;;;;;;;10571782;28;20439;-86
2021/04/30 17:59:39;;;;;;;14.90;13.55;;;;;;;;;;10567477;28;20027;-86
2021/04/30 18:04:46;;;;;;;12.90;11.75;;;;;;;;;;10569160;28;20031;-85
2021/04/30 18:09:47;;;;;;;13.25;12.05;;;;;;;;;;10567996;28;20059;-86
2021/04/30 18:14:51;;;;;;;13.02;11.80;;;;;;;;;;10566430;28;20027;-85
2021/04/30 18:19:52;;;;;;;6.90;6.30;;;;;;;;;;10564584;28;20027;-85
2021/04/30 18:25:07;;;;;;;;;;;;;;;;;;;;;
2021/04/30 18:30:10;;;;;;;7.85;7.15;;;;;;;;;;10584691;28;20077;-85
2021/04/30 18:35:11;;;;;;;7.43;6.72;;;;;;;;;;10588883;28;20389;-85
2021/04/30 18:40:15;;;;;;;8.10;7.40;;;;;;;;;;10584713;28;20027;-86
2021/04/30 18:45:23;;;;;;;7.10;6.40;;;;;;;;;;10588505;28;20027;-86
2021/04/30 18:50:27;;;;;;;9.50;8.57;;;;;;;;;;10592457;28;20024;-85
2021/04/30 18:55:28;;;;;;;9.02;8.13;;;;;;;;;;10592092;28;20465;-86
2021/04/30 19:00:33;;;;;;;8.40;7.65;;;;;;;;;;10582612;28;20024;-85
2021/04/30 19:05:38;;;;;;;8.45;7.75;;;;;;;;;;10589025;28;20047;-86
2021/04/30 19:10:41;;;;;;;8.60;7.80;;;;;;;;;;10587571;28;20035;-85
2021/04/30 19:15:42;;;;;;;7.97;7.28;;;;;;;;;;10587695;28;20016;-86
2021/04/30 19:20:49;;;;;;;9.15;8.35;;;;;;;;;;10586455;28;20031;-85
2021/04/30 19:25:52;;;;;;;9.60;8.70;;;;;;;;;;10586398;28;20485;-86
2021/04/30 19:30:54;;;;;;;9.43;8.63;;;;;;;;;;10588155;28;20024;-86
2021/04/30 19:36:04;;;;;;;10.93;9.93;;;;;;;;;;10588078;28;20038;-86
2021/04/30 19:41:05;;;;;;;11.93;10.35;;;;;;;;;;10589642;28;20024;-83
2021/04/30 19:46:12;;;;;;;11.07;10.15;;;;;;;;;;10568927;28;20092;-86
2021/04/30 19:51:14;;;;;;;11.73;10.68;;;;;;;;;;10571150;28;20116;-86
2021/04/30 19:56:15;;;;;;;10.60;9.52;;;;;;;;;;10573782;28;20031;-84
2021/04/30 20:01:19;;;;;;;8.18;7.43;;;;;;;;;;10590562;28;20546;-84
2021/04/30 20:06:21;;;;;;;11.23;10.25;;;;;;;;;;10591881;28;20039;-85
2021/04/30 20:11:22;;;;;;;12.35;11.25;;;;;;;;;;10576788;28;20114;-85
2021/04/30 20:16:24;;;;;;;12.18;10.98;;;;;;;;;;10592424;28;20020;-86
2021/04/30 20:21:25;;;;;;;11.95;10.85;;;;;;;;;;10572355;28;20038;-86
2021/04/30 20:26:29;;;;;;;11.10;10.10;;;;;;;;;;10592165;28;20071;-86
2021/04/30 20:31:30;;;;;;;11.15;10.15;;;;;;;;;;10572472;28;20019;-86
2021/04/30 20:36:34;;;;;;;13.45;12.18;;;;;;;;;;10572916;28;20120;-86
2021/04/30 20:41:37;;;;;;;10.80;9.77;;;;;;;;;;10572636;28;20024;-86
2021/04/30 20:46:38;;;;;;;9.95;9.10;;;;;;;;;;10590905;28;20023;-85
2021/04/30 20:51:39;;;;;;;15.07;13.77;;;;;;;;;;10595983;28;20024;-86
2021/04/30 20:56:40;;;;;;;13.10;12.00;;;;;;;;;;10576650;28;20024;-85
2021/04/30 21:01:42;;;;;;;12.02;10.93;;;;;;;;;;10570178;28;20027;-85
2021/04/30 21:06:48;;;;;;;11.75;10.77;;;;;;;;;;10571560;28;20054;-86
2021/04/30 21:11:55;;;;;;;10.82;9.82;;;;;;;;;;10570673;28;20073;-85
2021/04/30 21:17:07;;;;;;;10.55;9.63;;;;;;;;;;10589604;28;20019;-85
2021/04/30 21:22:09;;;;;;;10.82;9.88;;;;;;;;;;10592300;28;20035;-86
2021/04/30 21:27:19;;;;;;;12.65;11.55;;;;;;;;;;10592383;28;20027;-86
2021/04/30 21:32:25;;;;;;;12.50;11.40;;;;;;;;;;10570039;28;20024;-86
2021/04/30 21:37:31;;;;;;;10.93;10.00;;;;;;;;;;10567817;28;20080;-85
2021/04/30 21:42:32;;;;;;;9.32;8.52;;;;;;;;;;10567845;28;20120;-85
2021/04/30 21:47:39;;;;;;;10.13;9.23;;;;;;;;;;10585376;28;20114;-86
2021/04/30 21:53:12;;;;;;;8.00;7.30;;;;;;;;;;10599340;28;20055;-86
2021/04/30 21:58:24;;;;;;;9.00;8.20;;;;;;;;;;10505445;28;20057;-86
2021/04/30 22:03:25;;;;;;;13.63;12.52;;;;;;;;;;10587230;28;20030;-86
2021/04/30 22:08:41;;;;;;;10.65;9.75;;;;;;;;;;10570210;28;20519;-86
2021/04/30 22:13:43;;;;;;;15.98;14.48;;;;;;;;;;10583493;28;20109;-86
2021/04/30 22:18:56;;;;;;;15.13;13.82;;;;;;;;;;10593090;28;20036;-86
2021/04/30 22:24:01;;;;;;;12.70;11.60;;;;;;;;;;10579595;28;20493;-85
2021/04/30 22:29:16;;;;;;;9.95;9.05;;;;;;;;;;10569006;28;20027;-87
2021/04/30 22:34:23;;;;;;;9.48;8.68;;;;;;;;;;10593616;28;20024;-86
2021/04/30 22:39:26;;;;;;;17.55;16.05;;;;;;;;;;10592020;28;20023;-86
2021/04/30 22:44:27;;;;;;;10.80;10.00;;;;;;;;;;10581297;28;20111;-86
2021/04/30 22:49:31;;;;;;;7.88;7.28;;;;;;;;;;10578505;28;20031;-85
2021/04/30 22:54:33;;;;;;;9.10;8.30;;;;;;;;;;10590105;22;20117;-86
2021/04/30 22:59:34;;;;;;;10.80;9.90;;;;;;;;;;10547664;28;20492;-84
2021/04/30 23:04:39;;;;;;;9.73;8.93;;;;;;;;;;10547296;28;20024;-85
2021/04/30 23:09:47;;;;;;;11.38;10.38;;;;;;;;;;10564081;28;20478;-84
2021/04/30 23:14:53;;;;;;;11.95;10.95;;;;;;;;;;10547207;28;20039;-85
2021/04/30 23:19:55;;;;;;;10.38;9.52;;;;;;;;;;10548749;28;20023;-84
2021/04/30 23:24:57;;;;;;;16.35;15.05;;;;;;;;;;10542650;28;20024;-85
2021/04/30 23:30:07;;;;;;;15.82;14.45;;;;;;;;;;10542513;28;20024;-84
2021/04/30 23:35:10;;;;;;;14.73;13.48;;;;;;;;;;10544250;28;20020;-84
2021/04/30 23:40:11;;;;;;;9.32;8.60;;;;;;;;;;10544144;28;20036;-85
2021/04/30 23:45:15;;;;;;;17.73;16.20;;;;;;;;;;10570672;28;20087;-85
2021/04/30 23:50:19;;;;;;;14.77;13.50;;;;;;;;;;10579466;28;20482;-84
2021/04/30 23:55:20;;;;;;;14.27;12.98;;;;;;;;;;10552427;28;20039;-84
